Aérodrome :
LOGIN :

S'inscrire | Disclaimer

   EN    FR    IT 

 










Légende :    VFR   VFR Marginal   IFR   IFR Intensif   IFR Très Intensif
Visi : 
Plafond : 
>= 8 km
>= 3000ft
5 à 8 km
1000 à 3000 ft
1500m à 5 km
500 à 1000 ft
800 à 1500m
200 à 500 ft
< 800m
< 200 ft
Symboles :   Orages  Brouillard  Fortes neiges  Fortes précipitations  Vent > 20 kt
SIGMETs :   Divers  Orages  Givrage  Turbulence  Onde Orograph.  Cendres Volcan.







- Altitude de l'aérodrome : 1234 ft
- Code IATA : LUX


ELLX - Luxembourg Findel

DERNIER METAR :
  • 191820Z 26009KT CAVOK 14/12 Q1021 NOSIG

METARs EXPIRÉS :
  • 191750Z 24009KT CAVOK 15/12 Q1021 NOSIG
  • 191720Z 25007KT 200V270 9999 FEW040 14/12 Q1021 NOSIG
  • 191650Z 24010KT 210V270 9999 FEW030TCU BKN060 14/12 Q1021 NOSIG
  • 191620Z 27014KT 7000 -SHRA SCT030TCU BKN045 15/12 Q1021 RESHRA NOSIG
  • 191550Z 26010KT 9999 VCSH FEW029TCU SCT050 17/11 Q1021 NOSIG
  • 191520Z 25009KT 9999 FEW030TCU 17/11 Q1021 NOSIG

TAF TAF ELLX
Valide du 19 à 18h jusqu'au 21 à 00h UTC


191700Z 1918/2024 25008KT 9999 FEW030 SCT045
PROB30
TEMPO 1918/1920 7000 -SHRA SCT030TCU BKN045
BECMG 1920/1924 3500 BR SCT005
PROB40
TEMPO 2000/2007 0500 FG BKN001
BECMG 2007/2010 9999 SCT030
TEMPO 2021/2024 VRB02KT
ATIS : +352 4798 27300
Météo : +352 4798 27010 / 27050
Pas de NOTAMs connus pour ce terrain.



MET'MAP, la Météo Aéronautique d'un coup d'oeil ! - Copyright ORBIFLY Décembre 2007 - Disclaimer

ORBIFLY MET'MAP TEAM :

Programmation & Développement : Alexandra Zaïnal
Conception & Développement : Baudouin d'Aumeries
Co-Programmation & Développement : Marc-Olivier Méhu
Soutien technique & logistique : Manuel Goepfert

Contact : metmap@orbifly.com




SOURCES & CREDITS :

   NOAA